Terminal Aerodrome Forecast
Issued by NWS Paducah, KY

Home | Current Version | Previous Version | Text Only | Print | Product List | Glossary On
Versions: 1 2 3 4 5 6 7 8 9 10 11 12 13 14 15
000
FTUS43 KPAH 260500
TAFPAH
TAF
KPAH 260538Z 2606/2706 18006KT P6SM SCT250
     FM261500 19010G15KT P6SM SCT250
     FM270200 17007KT P6SM OVC070=

USA.gov is the U.S. government's official web portal to all federal, state and local government web resources and services.